Elsa — WDB7862 — position and weather

sailwx.info

Track history (hours):
 
Tides and Currents Weather Stations Pressure Air Temp Water Temp Dewpoint Dewpoint Depression Visibility Wind Speed Wind Dir Waves Ship Positions

Elsa

Owner: GP RESOURCES INC., TERMINAL ISLAND, CA. More information available from US FCC via Universal Licensing System and Coast Guard Vessel Documentation Center.

Last reported at 2014-Dec-11 05:25 UTC. Time now 2014-Dec-19 12:57 UTC.
Position N 33°45' W 118°12'.
Warning: this ship's position is 8 days out of date.

Length 18 m.

Type: Tug. MMSI: 366949020.

Date/timePositionNaut miles runAvg speedWind from/ knotsBaromVisibWave heightAir tempDewpointWater temp
2014-Dec-11 05:25N 33°45' W 118°12'1 1.3
2014-Dec-11 04:24N 33°44' W 118°13'2 0.7
2014-Dec-11 01:31N 33°43' W 118°15'1 1.0
2014-Dec-11 00:07N 33°44' W 118°16'1 1.5
2014-Dec-10 23:33N 33°43' W 118°16'3 2.7
2014-Dec-10 22:33N 33°46' W 118°15'0 0.0
2014-Dec-10 21:32N 33°46' W 118°15'2 0.1
2014-Dec-10 05:09N 33°44' W 118°16'3 2.7
2014-Dec-10 04:13N 33°44' W 118°13'0 0.0
2014-Dec-10 02:28N 33°44' W 118°13'0 0.0
2014-Dec-10 01:33N 33°44' W 118°13'1 0.6
2014-Dec-10 00:33N 33°43' W 118°14'2 0.1
2014-Dec-08 08:33N 33°44' W 118°16'2 1.9
2014-Dec-08 07:33N 33°46' W 118°15'0 0.0
2014-Dec-08 06:33N 33°46' W 118°15'0 0.0
2014-Dec-08 05:33N 33°46' W 118°15'1 1.3
2014-Dec-08 04:33N 33°45' W 118°16'3 2.8
2014-Dec-08 03:33N 33°43' W 118°14'0 0.0
2014-Dec-08 02:06N 33°43' W 118°14'0 0.0
2014-Dec-08 01:28N 33°43' W 118°14'2 1.6
2014-Dec-08 00:29N 33°44' W 118°15'0 0.0
2014-Dec-07 23:33N 33°44' W 118°15'0 0.0
2014-Dec-07 22:33N 33°44' W 118°15'0 0.0
2014-Dec-07 21:33N 33°44' W 118°15'0 0.0
2014-Dec-07 20:33N 33°44' W 118°15'2 0.1
2014-Dec-06 15:09N 33°45' W 118°12'0 0.1
2014-Dec-06 14:32N 33°45' W 118°12'2 1.8
2014-Dec-06 13:33N 33°46' W 118°14'0 0.0
2014-Dec-06 12:33N 33°46' W 118°14'0 0.0
2014-Dec-06 11:33N 33°46' W 118°14'2 0.1
2014-Dec-05 21:33N 33°44' W 118°14'3 0.1
2014-Dec-04 22:03N 33°44' W 118°10'0 0.0
2014-Dec-04 21:34N 33°44' W 118°10'  
Track history (hours):
 
Tides and Currents Weather Stations Pressure Air Temp Water Temp Dewpoint Dewpoint Depression Visibility Wind Speed Wind Dir Waves Ship Positions

Elsa

Owner: GP RESOURCES INC., TERMINAL ISLAND, CA. More information available from US FCC via Universal Licensing System and Coast Guard Vessel Documentation Center.

Last reported at 2014-Dec-11 05:25 UTC. Time now 2014-Dec-19 12:57 UTC.
Position N 33°45' W 118°12'.
Warning: this ship's position is 8 days out of date.

Length 18 m.

Type: Tug. MMSI: 366949020.

Date/timePositionNaut miles runAvg speedWind from/ knotsBaromVisibWave heightAir tempDewpointWater temp
2014-Dec-11 05:25N 33°45' W 118°12'1 1.3
2014-Dec-11 04:24N 33°44' W 118°13'2 0.7
2014-Dec-11 01:31N 33°43' W 118°15'1 1.0
2014-Dec-11 00:07N 33°44' W 118°16'1 1.5
2014-Dec-10 23:33N 33°43' W 118°16'3 2.7
2014-Dec-10 22:33N 33°46' W 118°15'0 0.0
2014-Dec-10 21:32N 33°46' W 118°15'2 0.1
2014-Dec-10 05:09N 33°44' W 118°16'3 2.7
2014-Dec-10 04:13N 33°44' W 118°13'0 0.0
2014-Dec-10 02:28N 33°44' W 118°13'0 0.0
2014-Dec-10 01:33N 33°44' W 118°13'1 0.6
2014-Dec-10 00:33N 33°43' W 118°14'2 0.1
2014-Dec-08 08:33N 33°44' W 118°16'2 1.9
2014-Dec-08 07:33N 33°46' W 118°15'0 0.0
2014-Dec-08 06:33N 33°46' W 118°15'0 0.0
2014-Dec-08 05:33N 33°46' W 118°15'1 1.3
2014-Dec-08 04:33N 33°45' W 118°16'3 2.8
2014-Dec-08 03:33N 33°43' W 118°14'0 0.0
2014-Dec-08 02:06N 33°43' W 118°14'0 0.0
2014-Dec-08 01:28N 33°43' W 118°14'2 1.6
2014-Dec-08 00:29N 33°44' W 118°15'0 0.0
2014-Dec-07 23:33N 33°44' W 118°15'0 0.0
2014-Dec-07 22:33N 33°44' W 118°15'0 0.0
2014-Dec-07 21:33N 33°44' W 118°15'0 0.0
2014-Dec-07 20:33N 33°44' W 118°15'2 0.1
2014-Dec-06 15:09N 33°45' W 118°12'0 0.1
2014-Dec-06 14:32N 33°45' W 118°12'2 1.8
2014-Dec-06 13:33N 33°46' W 118°14'0 0.0
2014-Dec-06 12:33N 33°46' W 118°14'0 0.0
2014-Dec-06 11:33N 33°46' W 118°14'2 0.1
2014-Dec-05 21:33N 33°44' W 118°14'3 0.1
2014-Dec-04 22:03N 33°44' W 118°10'0 0.0
2014-Dec-04 21:34N 33°44' W 118°10'  

Dump ship's entire track history